• Join FlightAware (Why Join?)
  • Login
  • US Flag 
02:02AM EST


 

Airport Tracker/Info


-or-


 

Live Flight TrackerFlight Track Log ✈ N5290H ✈ 04-Jun-2013 ✈ KITH - KSCH

Flight Track Log - Related Links

Times and Time Zones

All times are in EDT time to prevent confusion due to time zone crossing. See the N5290H flight status page for this flight to view local times or setup timezone preferences in your user account.

Time Position Orientation Groundspeed Altitude Reporting Facility
EDT Latitude Longitude Course Direction KTS MPH feet Rate Location/Type
02:53PM 42.5172 -76.3306 70° East 120 138 4,500  Level Boston Center
02:54PM 42.5267 -76.2944 70° East 114 131 5,000 600 Climbing Boston Center
02:55PM 42.5239 -76.2522 95° East 107 123 5,700 240 Climbing Boston Center
02:56PM 42.5294 -76.2131 79° East 113 130 5,500 -120 Descending Boston Center
02:57PM 42.5392 -76.1686 73° East 114 131 5,500  Level Boston Center
02:58PM 42.5450 -76.1236 80° East 113 130 5,500  Level Boston Center
02:59PM 42.5525 -76.0819 76° East 119 137 5,500  Level Boston Center
03:00PM 42.5622 -76.0372 74° East 119 137 5,500  Level Boston Center
03:01PM 42.5697 -75.9983 75° East 118 136 5,500  Level Boston Center
03:02PM 42.5756 -75.9506 81° East 124 143 5,500  Level Boston Center
03:03PM 42.5769 -75.9028 88° East 127 146 5,500  Level Boston Center
03:04PM 42.5847 -75.8553 77° East 120 138 5,500  Level Boston Center
03:05PM 42.5922 -75.8133 76° East 115 132 5,500  Level Boston Center
03:06PM 42.5978 -75.7658 81° East 124 143 5,500  Level Boston Center
03:07PM 42.6053 -75.7208 77° East 122 140 5,500  Level Boston Center
03:08PM 42.6106 -75.6761 81° East 119 137 5,500  Level Boston Center
03:09PM 42.6181 -75.6342 76° East 116 133 5,500  Level Boston Center
03:10PM 42.6256 -75.5894 77° East 119 137 5,500  Level Boston Center
03:11PM 42.6331 -75.5475 76° East 122 140 5,500  Level Boston Center
03:12PM 42.6386 -75.4997 81° East 120 138 5,500  Level Boston Center
03:13PM 42.6439 -75.4547 81° East 114 131 5,500  Level Boston Center
03:14PM 42.6511 -75.4128 77° East 116 133 5,500  Level Boston Center
03:15PM 42.6586 -75.3681 77° East 117 135 5,500  Level Boston Center
03:16PM 42.6639 -75.3231 81° East 124 143 5,500  Level Boston Center
03:17PM 42.6711 -75.2839 76° East 112 129 5,500  Level Boston Center
03:18PM 42.6764 -75.2389 81° East 117 135 5,600  Climbing Boston Center
03:19PM 42.6819 -75.1911 81° East 119 137 5,500  Descending Boston Center
03:20PM 42.6892 -75.1492 77° East 119 137 5,600  Climbing Boston Center
03:21PM 42.6964 -75.1014 78° East 122 140 5,600  Level Boston Center
03:22PM 42.7017 -75.0564 81° East 123 142 5,600 -60 Level Boston Center
03:23PM 42.7111 -75.0117 74° East 131 151 5,500  Descending Boston Center
03:24PM 42.7164 -74.9636 81° East 121 139 5,600  Climbing Boston Center
03:25PM 42.7214 -74.9214 81° East 122 140 5,600 -120 Level Boston Center
03:26PM 42.7283 -74.8906 73° East 129 148 5,500 -180 Descending Boston Center
03:27PM 42.7336 -74.8372 82° East 136 157 5,400 -60 Descending Boston Center
03:28PM 42.7367 -74.7950 84° East 120 138 5,400  Level Boston Center
03:29PM 42.7397 -74.7497 85° East 114 131 5,400  Level Boston Center
03:30PM 42.7467 -74.7075 77° East 120 138 5,500 -120 Climbing Boston Center
03:31PM 42.7539 -74.6628 78° East 123 142 5,200 -300 Descending Boston Center
03:32PM 42.7631 -74.6206 74° East 118 136 5,000 -240 Descending Boston Center
03:33PM 42.7681 -74.5783 81° East 112 129 4,800 -180 Descending Boston Center
03:34PM 42.7731 -74.5333 81° East 118 136 4,700 -120 Descending Boston Center
03:35PM 42.7822 -74.4825 76° East 132 152 4,600 -180 Descending Boston Center
03:36PM 42.7872 -74.4403 81° East 127 146 4,400 -120 Descending Boston Center
03:37PM 42.7944 -74.3867 80° East 127 146 4,400 -120 Level Boston Center
03:38PM 42.8014 -74.3389 79° East 130 150 4,200 -240 Descending Boston Center
03:39PM 42.8042 -74.2994 85° East 126 145 4,000 -360 Descending Boston Center
03:40PM 42.8111 -74.2458 80° East 129 148 3,600 -300 Descending Boston Center
03:41PM 42.8183 -74.1922 80° East 145 167 3,400 -300 Descending Boston Center
03:42PM 42.8192 -74.1383 89° East 147 169 3,100 -420 Descending Boston Center
03:43PM 42.8242 -74.0875 82° East 140 161 2,600 -600 Descending Boston Center
03:44PM 42.8308 -74.0425 79° East 112 129 2,000 -600 Descending Boston Center
03:45PM 42.8336 -74.0028 85° East 110 127 1,500 -360 Descending Boston Center
03:46PM 42.8322 -73.9575 92° East 109 125 1,300 -120 Descending Boston Center
03:47PM 42.8306 -73.9181 93° East 116 133 1,300 -180 Level Boston Center
03:48PM 42.8475 -73.9014 36° Northeast 71 82 1,000 -300 Descending Boston Center